메인 페이지
METAR-TAF:

METAR-TAF

공항 :

타이완 타오위안 국제공항

타이베이, 타이완

위도: 25-05N, 경도: 121-13E, 고도: 33m

현재 날씨관측

예보는 48분 전, 16:00시(UTC)에 발표되었습니다.
서북서7kt
온도 28°C
습도 94%
기압 1012 hPa
시정 10km 이상
고도 800ft 상공 구름 보통
고도 1300ft 상공 구름 많음
고도 2500ft 상공 구름 많음

METAR: RCTP 311600Z 29007KT 9999 SCT008 BKN013 BKN025 28/27 Q1012 NOSIG RMK A2989

시각: 00:48 (16:48 UTC)

예보

예보는 5 시간 48분 전, 11:00시(UTC)에 발표되었습니다.
예보 대상 시간: 31일 12시부터 01일 18시까지 (UTC)
남서5kt
시정 10km 이상
고도 1500ft 상공 구름 조금
고도 3200ft 상공 구름 많음
일시적
31일 12시부터 31일 16시까지 (UTC)
남남동5kt
고도 500ft 상공 구름 조금
고도 1100ft 상공 구름 많음
일시적
31일 20시부터 01일 02시까지 (UTC)
서북서5kt
시정: 4000m
고도 500ft 상공 구름 보통
고도 800ft 상공 구름 많음
박무
전환 중
01일 02시부터 01일 04시까지 (UTC)
북서5kt
고도 600ft 상공 구름 보통
고도 1100ft 상공 구름 많음
일시적
01일 06시부터 01일 10시까지 (UTC)
남남동5kt
고도 1000ft 상공 구름 보통
고도 3200ft 상공 구름 많음
일시적
01일 12시부터 01일 16시까지 (UTC)
남서5kt
고도 500ft 상공 구름 보통
고도 800ft 상공 구름 많음

TAF: RCTP 311100Z 3112/0118 22005KT 9999 FEW015 BKN032 TEMPO 3112/3116 16005KT FEW005 BKN011 TEMPO 3120/0102 30005KT 4000 BR SCT005 BKN008 BECMG 0102/0104 32005KT SCT006 BKN011 TEMPO 0106/0110 16005KT SCT010 BKN032 TEMPO 0112/0116 22005KT SCT005 BKN008

4,000개 이상의 공항 관측 자료 및 예보 (METAR 및 TAF 보고).

지도상에서 검색 가능한 기상관측소가 노란 점과 빨간 점으로 표시되어 있습니다.

기상관측소 명을 보려면 표시 위로 마우스를 이동하세요.

날씨 관측과 예보를 보려면 클릭하세요.

지도 변경 : 확대하려면 엑스 표시가 있는 녹색 버튼, 축소하려면 빼기 표시가 있는 녹색 버튼, 다음 페이지의 지도를 보려면 녹색 화살표를 클릭하세요.


METAR-TAF: